Terminal Aerodrome Forecast
Issued by NWS Upton, NY

Home | Current Version | Previous Version | Text Only | Print | Product List | Glossary On
Versions: 1 2 3 4 5 6 7 8 9 10 11 12 13 14 15 16 17 18 19 20 21 22 23 24 25 26 27 28
000
FTUS41 KOKX 240400 AAB
TAFJFK
TAF AMD
KJFK 240436Z 2405/2506 29010KT P6SM -SHRA SCT040 SCT110 OVC140
     FM240700 33008KT P6SM SCT050 OVC150
     FM241300 35012G19KT P6SM SCT050 SCT150 BKN250
     FM242200 33008KT P6SM FEW050 BKN250=

USA.gov is the U.S. government's official web portal to all federal, state and local government web resources and services.